sensor_id;sensor_type;location;lat;lon;timestamp;noise_LAeq;noise_LA_min;noise_LA_max;noise_LA01;noise_LA95
74214;Laerm;62576;55.694;37.494;2024-02-14T00:00:24;58.04;53.39;66.19;;
74214;Laerm;62576;55.694;37.494;2024-02-14T00:02:54;58.74;52.83;77.78;;
74214;Laerm;62576;55.694;37.494;2024-02-14T00:05:24;57.94;52.60;70.32;;
74214;Laerm;62576;55.694;37.494;2024-02-14T00:07:55;58.86;54.51;66.93;;
74214;Laerm;62576;55.694;37.494;2024-02-14T00:10:26;57.31;53.03;68.45;;
74214;Laerm;62576;55.694;37.494;2024-02-14T00:12:57;57.76;54.05;66.79;;
74214;Laerm;62576;55.694;37.494;2024-02-14T00:15:27;58.93;53.63;66.83;;
74214;Laerm;62576;55.694;37.494;2024-02-14T00:17:57;57.76;53.08;64.92;;
74214;Laerm;62576;55.694;37.494;2024-02-14T00:20:28;58.95;54.04;66.62;;
74214;Laerm;62576;55.694;37.494;2024-02-14T00:22:58;59.26;53.79;69.79;;
74214;Laerm;62576;55.694;37.494;2024-02-14T00:25:30;58.36;53.61;68.55;;
74214;Laerm;62576;55.694;37.494;2024-02-14T00:28:00;57.58;52.36;73.53;;
74214;Laerm;62576;55.694;37.494;2024-02-14T00:30:30;57.54;52.88;66.75;;
74214;Laerm;62576;55.694;37.494;2024-02-14T00:33:00;56.75;52.99;65.42;;
74214;Laerm;62576;55.694;37.494;2024-02-14T00:35:30;58.78;54.12;66.96;;
74214;Laerm;62576;55.694;37.494;2024-02-14T00:38:00;56.58;53.55;63.87;;
74214;Laerm;62576;55.694;37.494;2024-02-14T00:40:32;56.74;53.24;66.72;;
74214;Laerm;62576;55.694;37.494;2024-02-14T00:43:02;58.42;53.30;66.98;;
74214;Laerm;62576;55.694;37.494;2024-02-14T00:45:32;58.64;52.79;70.51;;
74214;Laerm;62576;55.694;37.494;2024-02-14T00:48:03;57.84;53.47;64.95;;
74214;Laerm;62576;55.694;37.494;2024-02-14T00:50:33;58.17;53.16;71.36;;
74214;Laerm;62576;55.694;37.494;2024-02-14T00:53:04;57.39;52.57;64.89;;
74214;Laerm;62576;55.694;37.494;2024-02-14T00:55:36;58.04;53.43;67.03;;
74214;Laerm;62576;55.694;37.494;2024-02-14T00:58:06;55.51;52.20;62.17;;
74214;Laerm;62576;55.694;37.494;2024-02-14T01:00:36;56.46;52.91;67.02;;
74214;Laerm;62576;55.694;37.494;2024-02-14T01:03:07;57.84;53.19;66.73;;
74214;Laerm;62576;55.694;37.494;2024-02-14T01:05:41;57.89;52.71;71.33;;
74214;Laerm;62576;55.694;37.494;2024-02-14T01:08:11;55.88;52.96;62.02;;
74214;Laerm;62576;55.694;37.494;2024-02-14T01:10:43;56.52;53.08;68.02;;
74214;Laerm;62576;55.694;37.494;2024-02-14T01:13:15;57.53;53.39;66.48;;
74214;Laerm;62576;55.694;37.494;2024-02-14T01:15:45;57.76;53.12;66.68;;
74214;Laerm;62576;55.694;37.494;2024-02-14T01:18:15;60.49;55.45;68.49;;
74214;Laerm;62576;55.694;37.494;2024-02-14T01:20:46;57.44;53.13;66.56;;
74214;Laerm;62576;55.694;37.494;2024-02-14T01:23:16;57.39;52.60;65.94;;
74214;Laerm;62576;55.694;37.494;2024-02-14T01:25:48;56.86;53.04;63.79;;
74214;Laerm;62576;55.694;37.494;2024-02-14T01:28:19;56.97;53.59;66.07;;
74214;Laerm;62576;55.694;37.494;2024-02-14T01:30:49;56.91;53.34;65.71;;
74214;Laerm;62576;55.694;37.494;2024-02-14T01:33:20;56.17;53.00;65.05;;
74214;Laerm;62576;55.694;37.494;2024-02-14T01:35:50;55.01;52.75;62.13;;
74214;Laerm;62576;55.694;37.494;2024-02-14T01:38:20;57.43;53.06;69.78;;
74214;Laerm;62576;55.694;37.494;2024-02-14T01:40:52;58.11;53.76;69.92;;
74214;Laerm;62576;55.694;37.494;2024-02-14T01:43:22;59.17;54.39;67.16;;
74214;Laerm;62576;55.694;37.494;2024-02-14T01:45:52;56.82;53.24;65.74;;
74214;Laerm;62576;55.694;37.494;2024-02-14T01:48:22;56.84;53.71;66.66;;
74214;Laerm;62576;55.694;37.494;2024-02-14T01:50:53;59.82;54.01;68.40;;
74214;Laerm;62576;55.694;37.494;2024-02-14T01:53:23;60.81;54.89;71.51;;
74214;Laerm;62576;55.694;37.494;2024-02-14T01:55:55;57.99;53.60;67.70;;
74214;Laerm;62576;55.694;37.494;2024-02-14T01:58:26;58.43;53.84;69.21;;
74214;Laerm;62576;55.694;37.494;2024-02-14T02:00:56;56.87;52.66;68.10;;
74214;Laerm;62576;55.694;37.494;2024-02-14T02:03:27;58.04;53.54;65.87;;
74214;Laerm;62576;55.694;37.494;2024-02-14T02:05:57;57.38;53.46;65.33;;
74214;Laerm;62576;55.694;37.494;2024-02-14T02:08:28;56.50;53.15;64.58;;
74214;Laerm;62576;55.694;37.494;2024-02-14T02:10:56;57.61;53.65;65.87;;
74214;Laerm;62576;55.694;37.494;2024-02-14T02:13:26;58.20;53.61;73.06;;
74214;Laerm;62576;55.694;37.494;2024-02-14T02:15:54;58.79;53.60;83.52;;
74214;Laerm;62576;55.694;37.494;2024-02-14T02:18:25;57.44;54.07;64.87;;
74214;Laerm;62576;55.694;37.494;2024-02-14T02:20:55;59.02;54.05;68.35;;
74214;Laerm;62576;55.694;37.494;2024-02-14T02:23:24;58.37;54.28;66.99;;
74214;Laerm;62576;55.694;37.494;2024-02-14T02:25:51;58.74;54.00;66.64;;
74214;Laerm;62576;55.694;37.494;2024-02-14T02:28:22;61.66;54.72;70.89;;
74214;Laerm;62576;55.694;37.494;2024-02-14T02:30:49;59.83;54.34;75.65;;
74214;Laerm;62576;55.694;37.494;2024-02-14T02:33:20;60.74;54.53;77.49;;
74214;Laerm;62576;55.694;37.494;2024-02-14T02:35:50;57.81;54.23;65.92;;
74214;Laerm;62576;55.694;37.494;2024-02-14T02:38:21;59.76;53.83;70.11;;
74214;Laerm;62576;55.694;37.494;2024-02-14T02:40:53;59.80;54.87;68.47;;
74214;Laerm;62576;55.694;37.494;2024-02-14T02:43:23;58.89;54.71;67.35;;
74214;Laerm;62576;55.694;37.494;2024-02-14T02:45:53;61.86;54.71;71.41;;
74214;Laerm;62576;55.694;37.494;2024-02-14T02:48:23;58.85;55.31;67.37;;
74214;Laerm;62576;55.694;37.494;2024-02-14T02:50:53;58.23;54.72;64.59;;
74214;Laerm;62576;55.694;37.494;2024-02-14T02:53:24;60.88;55.52;70.65;;
74214;Laerm;62576;55.694;37.494;2024-02-14T02:55:55;57.70;54.40;65.85;;
74214;Laerm;62576;55.694;37.494;2024-02-14T02:58:25;59.90;54.71;69.65;;
74214;Laerm;62576;55.694;37.494;2024-02-14T03:00:56;59.47;54.42;67.90;;
74214;Laerm;62576;55.694;37.494;2024-02-14T03:03:26;59.80;54.18;67.22;;
74214;Laerm;62576;55.694;37.494;2024-02-14T03:05:57;59.92;54.47;71.37;;
74214;Laerm;62576;55.694;37.494;2024-02-14T03:08:28;61.92;55.03;70.63;;
74214;Laerm;62576;55.694;37.494;2024-02-14T03:11:03;60.59;54.85;69.92;;
74214;Laerm;62576;55.694;37.494;2024-02-14T03:13:37;61.34;55.44;69.16;;
74214;Laerm;62576;55.694;37.494;2024-02-14T03:16:09;61.96;54.76;71.46;;
74214;Laerm;62576;55.694;37.494;2024-02-14T03:18:40;61.08;54.46;69.19;;
74214;Laerm;62576;55.694;37.494;2024-02-14T03:21:10;62.92;54.53;73.33;;
74214;Laerm;62576;55.694;37.494;2024-02-14T03:23:47;60.22;55.35;76.14;;
74214;Laerm;62576;55.694;37.494;2024-02-14T03:26:27;61.98;54.93;68.79;;
74214;Laerm;62576;55.694;37.494;2024-02-14T03:29:04;63.89;56.77;73.45;;
74214;Laerm;62576;55.694;37.494;2024-02-14T03:31:35;63.61;55.26;73.74;;
74214;Laerm;62576;55.694;37.494;2024-02-14T03:34:05;62.38;55.76;72.26;;
74214;Laerm;62576;55.694;37.494;2024-02-14T03:36:37;63.52;55.79;74.83;;
74214;Laerm;62576;55.694;37.494;2024-02-14T03:39:07;63.36;55.78;71.54;;
74214;Laerm;62576;55.694;37.494;2024-02-14T03:41:39;63.42;55.68;72.82;;
74214;Laerm;62576;55.694;37.494;2024-02-14T03:44:09;62.93;55.56;71.33;;
74214;Laerm;62576;55.694;37.494;2024-02-14T03:46:40;62.96;56.16;71.83;;
74214;Laerm;62576;55.694;37.494;2024-02-14T03:49:10;63.13;56.84;71.22;;
74214;Laerm;62576;55.694;37.494;2024-02-14T03:51:41;63.62;56.77;71.63;;
74214;Laerm;62576;55.694;37.494;2024-02-14T03:54:11;63.12;55.94;73.17;;
74214;Laerm;62576;55.694;37.494;2024-02-14T03:56:43;63.86;56.79;71.65;;
74214;Laerm;62576;55.694;37.494;2024-02-14T03:59:14;63.30;55.89;70.73;;
74214;Laerm;62576;55.694;37.494;2024-02-14T04:01:49;65.87;57.02;75.13;;
74214;Laerm;62576;55.694;37.494;2024-02-14T04:04:22;65.55;56.93;71.68;;
74214;Laerm;62576;55.694;37.494;2024-02-14T04:06:52;65.09;55.98;72.50;;
74214;Laerm;62576;55.694;37.494;2024-02-14T04:09:22;65.33;56.47;72.82;;
74214;Laerm;62576;55.694;37.494;2024-02-14T04:11:51;66.12;57.57;72.07;;
74214;Laerm;62576;55.694;37.494;2024-02-14T04:14:21;67.08;57.89;73.35;;
74214;Laerm;62576;55.694;37.494;2024-02-14T04:16:51;65.85;57.66;71.64;;
74214;Laerm;62576;55.694;37.494;2024-02-14T04:19:21;67.24;57.70;73.90;;
74214;Laerm;62576;55.694;37.494;2024-02-14T04:21:52;65.42;57.43;72.38;;
74214;Laerm;62576;55.694;37.494;2024-02-14T04:24:22;66.61;58.79;72.19;;
74214;Laerm;62576;55.694;37.494;2024-02-14T04:26:54;66.73;59.15;72.00;;
74214;Laerm;62576;55.694;37.494;2024-02-14T04:29:25;66.84;58.54;71.57;;
74214;Laerm;62576;55.694;37.494;2024-02-14T04:31:57;66.97;58.08;72.28;;
74214;Laerm;62576;55.694;37.494;2024-02-14T04:34:27;67.52;59.00;73.55;;
74214;Laerm;62576;55.694;37.494;2024-02-14T04:36:58;66.47;59.84;71.15;;
74214;Laerm;62576;55.694;37.494;2024-02-14T04:39:28;67.10;58.35;73.01;;
74214;Laerm;62576;55.694;37.494;2024-02-14T04:42:00;67.82;58.63;74.19;;
74214;Laerm;62576;55.694;37.494;2024-02-14T04:44:31;67.35;57.94;74.28;;
74214;Laerm;62576;55.694;37.494;2024-02-14T04:47:01;67.20;59.78;73.76;;
74214;Laerm;62576;55.694;37.494;2024-02-14T04:49:31;66.11;58.54;70.96;;
74214;Laerm;62576;55.694;37.494;2024-02-14T04:52:02;67.03;59.14;73.33;;
74214;Laerm;62576;55.694;37.494;2024-02-14T04:54:33;66.75;57.64;73.48;;
74214;Laerm;62576;55.694;37.494;2024-02-14T04:57:04;67.35;58.88;73.02;;
74214;Laerm;62576;55.694;37.494;2024-02-14T04:59:35;66.93;59.92;73.15;;
74214;Laerm;62576;55.694;37.494;2024-02-14T05:02:05;67.65;59.68;72.66;;
74214;Laerm;62576;55.694;37.494;2024-02-14T05:04:35;67.67;59.44;72.09;;
74214;Laerm;62576;55.694;37.494;2024-02-14T05:07:06;67.27;58.05;72.58;;
74214;Laerm;62576;55.694;37.494;2024-02-14T05:09:37;67.16;59.85;73.64;;
74214;Laerm;62576;55.694;37.494;2024-02-14T05:12:09;67.78;59.34;73.04;;
74214;Laerm;62576;55.694;37.494;2024-02-14T05:14:39;68.13;59.02;74.77;;
74214;Laerm;62576;55.694;37.494;2024-02-14T05:17:09;68.01;58.54;74.01;;
74214;Laerm;62576;55.694;37.494;2024-02-14T05:19:41;68.12;59.90;72.39;;
74214;Laerm;62576;55.694;37.494;2024-02-14T05:22:11;68.30;58.99;74.37;;
74214;Laerm;62576;55.694;37.494;2024-02-14T05:24:42;66.98;58.56;73.26;;
74214;Laerm;62576;55.694;37.494;2024-02-14T05:27:14;68.12;59.12;78.95;;
74214;Laerm;62576;55.694;37.494;2024-02-14T05:29:44;68.46;59.24;73.50;;
74214;Laerm;62576;55.694;37.494;2024-02-14T05:32:14;67.52;58.92;72.26;;
74214;Laerm;62576;55.694;37.494;2024-02-14T05:34:45;68.77;58.97;84.10;;
74214;Laerm;62576;55.694;37.494;2024-02-14T05:37:15;68.22;61.47;73.41;;
74214;Laerm;62576;55.694;37.494;2024-02-14T05:39:45;68.29;58.76;73.46;;
74214;Laerm;62576;55.694;37.494;2024-02-14T05:42:17;67.54;58.47;72.66;;
74214;Laerm;62576;55.694;37.494;2024-02-14T05:44:48;67.63;59.55;72.48;;
74214;Laerm;62576;55.694;37.494;2024-02-14T05:47:20;68.41;59.85;72.92;;
74214;Laerm;62576;55.694;37.494;2024-02-14T05:49:51;68.70;57.79;74.41;;
74214;Laerm;62576;55.694;37.494;2024-02-14T05:52:21;68.88;60.19;73.72;;
74214;Laerm;62576;55.694;37.494;2024-02-14T05:54:51;68.19;58.61;80.74;;
74214;Laerm;62576;55.694;37.494;2024-02-14T05:57:24;67.02;58.81;72.08;;
74214;Laerm;62576;55.694;37.494;2024-02-14T05:59:54;68.15;59.53;73.67;;
74214;Laerm;62576;55.694;37.494;2024-02-14T06:02:26;69.00;58.00;74.43;;
74214;Laerm;62576;55.694;37.494;2024-02-14T06:04:56;68.24;57.86;73.42;;
74214;Laerm;62576;55.694;37.494;2024-02-14T06:07:26;68.44;58.10;73.98;;
74214;Laerm;62576;55.694;37.494;2024-02-14T06:09:57;67.86;59.07;72.95;;
74214;Laerm;62576;55.694;37.494;2024-02-14T06:12:29;66.69;57.09;71.44;;
74214;Laerm;62576;55.694;37.494;2024-02-14T06:14:59;67.41;57.58;72.79;;
74214;Laerm;62576;55.694;37.494;2024-02-14T06:17:29;67.33;58.05;71.98;;
74214;Laerm;62576;55.694;37.494;2024-02-14T06:20:01;68.07;57.86;73.24;;
74214;Laerm;62576;55.694;37.494;2024-02-14T06:22:35;67.64;58.00;73.01;;
74214;Laerm;62576;55.694;37.494;2024-02-14T06:25:06;68.12;58.59;77.77;;
74214;Laerm;62576;55.694;37.494;2024-02-14T06:27:38;67.23;57.48;73.22;;
74214;Laerm;62576;55.694;37.494;2024-02-14T06:30:09;67.01;58.69;72.72;;
74214;Laerm;62576;55.694;37.494;2024-02-14T06:32:40;67.74;57.50;73.30;;
74214;Laerm;62576;55.694;37.494;2024-02-14T06:35:10;67.62;58.13;73.35;;
74214;Laerm;62576;55.694;37.494;2024-02-14T06:37:40;68.46;57.66;75.32;;
74214;Laerm;62576;55.694;37.494;2024-02-14T06:40:11;68.09;58.63;73.88;;
74214;Laerm;62576;55.694;37.494;2024-02-14T06:42:43;67.51;58.81;72.55;;
74214;Laerm;62576;55.694;37.494;2024-02-14T06:45:13;67.29;57.82;73.37;;
74214;Laerm;62576;55.694;37.494;2024-02-14T06:47:44;67.84;56.42;74.39;;
74214;Laerm;62576;55.694;37.494;2024-02-14T06:50:14;67.79;58.06;73.22;;
74214;Laerm;62576;55.694;37.494;2024-02-14T06:52:44;67.72;57.34;72.42;;
74214;Laerm;62576;55.694;37.494;2024-02-14T06:55:14;68.08;56.72;74.56;;
74214;Laerm;62576;55.694;37.494;2024-02-14T06:57:46;67.98;57.64;73.00;;
74214;Laerm;62576;55.694;37.494;2024-02-14T07:00:18;67.07;55.62;73.25;;
74214;Laerm;62576;55.694;37.494;2024-02-14T07:02:48;67.26;57.70;72.62;;
74214;Laerm;62576;55.694;37.494;2024-02-14T07:05:18;66.62;58.86;71.36;;
74214;Laerm;62576;55.694;37.494;2024-02-14T07:07:48;66.53;58.13;72.21;;
74214;Laerm;62576;55.694;37.494;2024-02-14T07:10:18;67.40;57.94;74.12;;
74214;Laerm;62576;55.694;37.494;2024-02-14T07:12:50;66.72;56.15;73.96;;
74214;Laerm;62576;55.694;37.494;2024-02-14T07:15:22;67.32;57.90;78.36;;
74214;Laerm;62576;55.694;37.494;2024-02-14T07:17:57;66.90;57.28;72.60;;
74214;Laerm;62576;55.694;37.494;2024-02-14T07:20:27;66.13;59.11;71.38;;
74214;Laerm;62576;55.694;37.494;2024-02-14T07:23:00;67.39;57.30;72.77;;
74214;Laerm;62576;55.694;37.494;2024-02-14T07:25:33;67.71;57.64;72.66;;
74214;Laerm;62576;55.694;37.494;2024-02-14T07:28:05;67.90;57.19;80.09;;
74214;Laerm;62576;55.694;37.494;2024-02-14T07:30:35;67.09;57.47;72.99;;
74214;Laerm;62576;55.694;37.494;2024-02-14T07:33:05;66.44;56.57;72.18;;
74214;Laerm;62576;55.694;37.494;2024-02-14T07:35:36;66.50;57.55;71.51;;
74214;Laerm;62576;55.694;37.494;2024-02-14T07:38:06;66.57;56.40;72.27;;
74214;Laerm;62576;55.694;37.494;2024-02-14T07:40:37;68.43;55.80;83.44;;
74214;Laerm;62576;55.694;37.494;2024-02-14T07:43:09;67.75;57.26;73.51;;
74214;Laerm;62576;55.694;37.494;2024-02-14T07:45:40;67.21;58.27;72.32;;
74214;Laerm;62576;55.694;37.494;2024-02-14T07:48:10;69.50;57.42;87.50;;
74214;Laerm;62576;55.694;37.494;2024-02-14T07:50:40;67.52;57.09;77.67;;
74214;Laerm;62576;55.694;37.494;2024-02-14T07:53:10;67.67;57.53;72.03;;
74214;Laerm;62576;55.694;37.494;2024-02-14T07:55:41;69.28;58.28;88.27;;
74214;Laerm;62576;55.694;37.494;2024-02-14T07:58:12;67.91;57.24;73.37;;
74214;Laerm;62576;55.694;37.494;2024-02-14T08:00:43;67.18;56.98;73.80;;
74214;Laerm;62576;55.694;37.494;2024-02-14T08:03:13;66.93;56.22;72.57;;
74214;Laerm;62576;55.694;37.494;2024-02-14T08:05:43;67.58;57.75;75.81;;
74214;Laerm;62576;55.694;37.494;2024-02-14T08:08:16;68.30;56.88;75.00;;
74214;Laerm;62576;55.694;37.494;2024-02-14T08:10:46;67.99;59.60;73.23;;
74214;Laerm;62576;55.694;37.494;2024-02-14T08:13:15;67.23;58.45;72.96;;
74214;Laerm;62576;55.694;37.494;2024-02-14T08:15:54;67.29;59.27;72.74;;
74214;Laerm;62576;55.694;37.494;2024-02-14T08:18:25;67.39;57.83;71.66;;
74214;Laerm;62576;55.694;37.494;2024-02-14T08:20:59;67.32;61.30;72.31;;
74214;Laerm;62576;55.694;37.494;2024-02-14T08:23:29;66.92;56.64;73.15;;
74214;Laerm;62576;55.694;37.494;2024-02-14T08:26:04;67.44;57.95;73.25;;
74214;Laerm;62576;55.694;37.494;2024-02-14T08:28:40;67.94;58.44;72.76;;
74214;Laerm;62576;55.694;37.494;2024-02-14T08:31:11;67.99;59.42;75.24;;
74214;Laerm;62576;55.694;37.494;2024-02-14T08:33:44;66.52;60.07;71.31;;
74214;Laerm;62576;55.694;37.494;2024-02-14T08:36:15;66.76;58.96;72.67;;
74214;Laerm;62576;55.694;37.494;2024-02-14T08:38:47;66.10;57.78;71.84;;
74214;Laerm;62576;55.694;37.494;2024-02-14T08:41:18;67.53;56.86;73.20;;
74214;Laerm;62576;55.694;37.494;2024-02-14T08:43:50;68.32;59.93;72.82;;
74214;Laerm;62576;55.694;37.494;2024-02-14T08:46:21;67.90;60.52;72.75;;
74214;Laerm;62576;55.694;37.494;2024-02-14T08:48:52;67.14;60.10;75.38;;
74214;Laerm;62576;55.694;37.494;2024-02-14T08:51:25;66.86;60.67;71.82;;
74214;Laerm;62576;55.694;37.494;2024-02-14T08:53:56;66.94;58.73;71.94;;
74214;Laerm;62576;55.694;37.494;2024-02-14T08:56:28;68.37;57.61;76.91;;
74214;Laerm;62576;55.694;37.494;2024-02-14T08:59:03;68.18;57.16;72.96;;
74214;Laerm;62576;55.694;37.494;2024-02-14T09:01:35;66.80;57.55;72.25;;
74214;Laerm;62576;55.694;37.494;2024-02-14T09:04:05;67.65;60.29;75.70;;
74214;Laerm;62576;55.694;37.494;2024-02-14T09:06:36;66.84;59.51;71.98;;
74214;Laerm;62576;55.694;37.494;2024-02-14T09:09:07;67.49;59.86;73.11;;
74214;Laerm;62576;55.694;37.494;2024-02-14T09:11:36;67.41;58.38;72.42;;
74214;Laerm;62576;55.694;37.494;2024-02-14T09:14:08;67.55;59.84;72.69;;
74214;Laerm;62576;55.694;37.494;2024-02-14T09:16:39;68.10;57.95;74.05;;
74214;Laerm;62576;55.694;37.494;2024-02-14T09:19:09;67.15;58.00;72.89;;
74214;Laerm;62576;55.694;37.494;2024-02-14T09:21:41;66.83;58.02;72.59;;
74214;Laerm;62576;55.694;37.494;2024-02-14T09:24:11;67.40;58.50;71.74;;
74214;Laerm;62576;55.694;37.494;2024-02-14T09:26:42;67.40;60.59;73.74;;
74214;Laerm;62576;55.694;37.494;2024-02-14T09:29:14;67.06;59.09;73.43;;
74214;Laerm;62576;55.694;37.494;2024-02-14T09:31:44;67.12;58.60;73.69;;
74214;Laerm;62576;55.694;37.494;2024-02-14T09:34:17;67.65;59.62;75.58;;
74214;Laerm;62576;55.694;37.494;2024-02-14T09:36:48;67.50;56.00;73.89;;
74214;Laerm;62576;55.694;37.494;2024-02-14T09:39:20;67.23;59.42;72.71;;
74214;Laerm;62576;55.694;37.494;2024-02-14T09:41:52;67.75;61.15;73.12;;
74214;Laerm;62576;55.694;37.494;2024-02-14T09:44:27;67.29;58.99;72.45;;
74214;Laerm;62576;55.694;37.494;2024-02-14T09:46:59;67.82;61.83;73.03;;
74214;Laerm;62576;55.694;37.494;2024-02-14T09:49:30;67.08;57.71;73.12;;
74214;Laerm;62576;55.694;37.494;2024-02-14T09:52:02;67.83;58.43;75.62;;
74214;Laerm;62576;55.694;37.494;2024-02-14T09:54:32;67.68;59.66;72.33;;
74214;Laerm;62576;55.694;37.494;2024-02-14T09:57:04;68.27;60.52;73.40;;
74214;Laerm;62576;55.694;37.494;2024-02-14T09:59:36;68.74;61.22;73.05;;
74214;Laerm;62576;55.694;37.494;2024-02-14T10:02:07;68.01;58.52;73.59;;
74214;Laerm;62576;55.694;37.494;2024-02-14T10:04:38;67.20;59.02;73.02;;
74214;Laerm;62576;55.694;37.494;2024-02-14T10:07:09;68.01;58.93;73.44;;
74214;Laerm;62576;55.694;37.494;2024-02-14T10:09:42;67.92;56.56;73.47;;
74214;Laerm;62576;55.694;37.494;2024-02-14T10:12:13;68.13;61.56;73.92;;
74214;Laerm;62576;55.694;37.494;2024-02-14T10:14:45;67.65;59.53;72.54;;
74214;Laerm;62576;55.694;37.494;2024-02-14T10:17:19;68.24;62.64;72.99;;
74214;Laerm;62576;55.694;37.494;2024-02-14T10:20:04;67.01;57.25;72.97;;
74214;Laerm;62576;55.694;37.494;2024-02-14T10:22:36;67.97;60.72;73.04;;
74214;Laerm;62576;55.694;37.494;2024-02-14T10:25:07;67.32;57.52;71.71;;
74214;Laerm;62576;55.694;37.494;2024-02-14T10:27:39;67.40;61.54;74.54;;
74214;Laerm;62576;55.694;37.494;2024-02-14T10:30:12;67.53;58.58;73.97;;
74214;Laerm;62576;55.694;37.494;2024-02-14T10:32:42;67.66;59.28;76.88;;
74214;Laerm;62576;55.694;37.494;2024-02-14T10:35:16;67.91;60.44;73.43;;
74214;Laerm;62576;55.694;37.494;2024-02-14T10:37:47;67.73;59.24;72.67;;
74214;Laerm;62576;55.694;37.494;2024-02-14T10:40:20;68.47;59.99;75.90;;
74214;Laerm;62576;55.694;37.494;2024-02-14T10:42:51;67.97;60.00;73.49;;
74214;Laerm;62576;55.694;37.494;2024-02-14T10:45:24;67.03;59.56;72.04;;
74214;Laerm;62576;55.694;37.494;2024-02-14T10:47:56;68.20;59.87;75.49;;
74214;Laerm;62576;55.694;37.494;2024-02-14T10:50:28;67.64;60.92;73.47;;
74214;Laerm;62576;55.694;37.494;2024-02-14T10:53:04;67.27;59.95;72.74;;
74214;Laerm;62576;55.694;37.494;2024-02-14T10:55:36;69.00;58.34;83.40;;
74214;Laerm;62576;55.694;37.494;2024-02-14T10:58:09;69.24;59.59;83.95;;
74214;Laerm;62576;55.694;37.494;2024-02-14T11:00:42;67.95;59.11;74.37;;
74214;Laerm;62576;55.694;37.494;2024-02-14T11:03:13;68.86;59.18;81.09;;
74214;Laerm;62576;55.694;37.494;2024-02-14T11:05:45;67.99;61.61;73.67;;
74214;Laerm;62576;55.694;37.494;2024-02-14T11:08:18;68.68;60.61;74.58;;
74214;Laerm;62576;55.694;37.494;2024-02-14T11:10:54;68.13;60.24;73.01;;
74214;Laerm;62576;55.694;37.494;2024-02-14T11:13:42;67.99;62.69;73.68;;
74214;Laerm;62576;55.694;37.494;2024-02-14T11:16:14;67.62;59.14;73.50;;
74214;Laerm;62576;55.694;37.494;2024-02-14T11:18:45;67.44;58.90;73.88;;
74214;Laerm;62576;55.694;37.494;2024-02-14T11:21:16;68.32;59.99;73.71;;
74214;Laerm;62576;55.694;37.494;2024-02-14T11:23:56;68.72;58.55;73.41;;
74214;Laerm;62576;55.694;37.494;2024-02-14T11:26:38;67.07;59.57;72.92;;
74214;Laerm;62576;55.694;37.494;2024-02-14T11:29:14;66.99;58.68;71.80;;
74214;Laerm;62576;55.694;37.494;2024-02-14T11:31:46;67.47;60.57;73.30;;
74214;Laerm;62576;55.694;37.494;2024-02-14T11:34:17;67.37;60.27;72.96;;
74214;Laerm;62576;55.694;37.494;2024-02-14T11:36:48;67.79;60.39;74.47;;
74214;Laerm;62576;55.694;37.494;2024-02-14T11:39:20;68.69;57.17;81.34;;
74214;Laerm;62576;55.694;37.494;2024-02-14T11:41:50;66.93;59.18;71.78;;
74214;Laerm;62576;55.694;37.494;2024-02-14T11:44:21;67.17;59.82;71.43;;
74214;Laerm;62576;55.694;37.494;2024-02-14T11:46:54;68.23;63.19;73.21;;
74214;Laerm;62576;55.694;37.494;2024-02-14T11:49:25;68.52;58.98;74.43;;
74214;Laerm;62576;55.694;37.494;2024-02-14T11:51:55;67.85;61.85;72.95;;
74214;Laerm;62576;55.694;37.494;2024-02-14T11:54:26;67.96;61.33;73.22;;
74214;Laerm;62576;55.694;37.494;2024-02-14T11:56:57;67.97;62.65;73.42;;
74214;Laerm;62576;55.694;37.494;2024-02-14T11:59:28;68.36;61.43;73.34;;
74214;Laerm;62576;55.694;37.494;2024-02-14T12:02:00;67.51;60.21;73.00;;
74214;Laerm;62576;55.694;37.494;2024-02-14T12:04:31;67.76;59.85;75.54;;
74214;Laerm;62576;55.694;37.494;2024-02-14T12:07:02;69.91;62.00;78.44;;
74214;Laerm;62576;55.694;37.494;2024-02-14T12:09:34;69.01;63.14;74.67;;
74214;Laerm;62576;55.694;37.494;2024-02-14T12:12:05;68.18;61.47;78.72;;
74214;Laerm;62576;55.694;37.494;2024-02-14T12:14:36;67.82;61.62;80.61;;
74214;Laerm;62576;55.694;37.494;2024-02-14T12:17:05;68.25;59.43;76.87;;
74214;Laerm;62576;55.694;37.494;2024-02-14T12:19:36;67.11;60.20;71.59;;
74214;Laerm;62576;55.694;37.494;2024-02-14T12:22:09;67.18;60.30;73.36;;
74214;Laerm;62576;55.694;37.494;2024-02-14T12:24:46;67.72;60.78;74.21;;
74214;Laerm;62576;55.694;37.494;2024-02-14T12:27:18;67.65;60.99;73.58;;
74214;Laerm;62576;55.694;37.494;2024-02-14T12:29:51;67.43;60.15;73.72;;
74214;Laerm;62576;55.694;37.494;2024-02-14T12:32:23;67.41;59.44;74.21;;
74214;Laerm;62576;55.694;37.494;2024-02-14T12:34:55;69.59;61.39;88.08;;
74214;Laerm;62576;55.694;37.494;2024-02-14T12:37:26;68.12;60.03;73.28;;
74214;Laerm;62576;55.694;37.494;2024-02-14T12:39:56;68.62;60.18;73.37;;
74214;Laerm;62576;55.694;37.494;2024-02-14T12:42:28;67.90;59.60;73.46;;
74214;Laerm;62576;55.694;37.494;2024-02-14T12:44:58;67.43;60.38;73.81;;
74214;Laerm;62576;55.694;37.494;2024-02-14T12:47:30;68.57;61.52;82.53;;
74214;Laerm;62576;55.694;37.494;2024-02-14T12:50:04;68.31;60.05;79.15;;
74214;Laerm;62576;55.694;37.494;2024-02-14T12:52:38;67.64;57.04;73.17;;
74214;Laerm;62576;55.694;37.494;2024-02-14T12:55:10;67.25;60.83;73.65;;
74214;Laerm;62576;55.694;37.494;2024-02-14T12:57:41;66.85;60.96;72.25;;
74214;Laerm;62576;55.694;37.494;2024-02-14T13:00:13;66.90;60.07;74.92;;
74214;Laerm;62576;55.694;37.494;2024-02-14T13:02:47;67.77;62.95;72.22;;
74214;Laerm;62576;55.694;37.494;2024-02-14T13:05:17;68.28;58.42;78.18;;
74214;Laerm;62576;55.694;37.494;2024-02-14T13:07:48;67.81;62.00;72.54;;
74214;Laerm;62576;55.694;37.494;2024-02-14T13:10:19;67.29;61.31;78.76;;
74214;Laerm;62576;55.694;37.494;2024-02-14T13:12:50;67.63;62.38;74.62;;
74214;Laerm;62576;55.694;37.494;2024-02-14T13:15:20;68.46;61.65;82.22;;
74214;Laerm;62576;55.694;37.494;2024-02-14T13:17:52;68.67;60.95;75.16;;
74214;Laerm;62576;55.694;37.494;2024-02-14T13:20:22;68.30;60.00;73.53;;
74214;Laerm;62576;55.694;37.494;2024-02-14T13:22:53;67.68;60.23;73.43;;
74214;Laerm;62576;55.694;37.494;2024-02-14T13:25:23;67.68;60.44;72.06;;
74214;Laerm;62576;55.694;37.494;2024-02-14T13:27:54;67.40;60.03;71.63;;
74214;Laerm;62576;55.694;37.494;2024-02-14T13:30:24;67.62;61.22;74.22;;
74214;Laerm;62576;55.694;37.494;2024-02-14T13:32:56;67.46;62.14;72.44;;
74214;Laerm;62576;55.694;37.494;2024-02-14T13:35:26;66.99;61.62;78.10;;
74214;Laerm;62576;55.694;37.494;2024-02-14T13:37:57;67.68;60.68;73.09;;
74214;Laerm;62576;55.694;37.494;2024-02-14T13:40:33;68.31;61.54;73.84;;
74214;Laerm;62576;55.694;37.494;2024-02-14T13:43:03;68.39;62.30;72.83;;
74214;Laerm;62576;55.694;37.494;2024-02-14T13:45:41;68.23;60.41;73.76;;
74214;Laerm;62576;55.694;37.494;2024-02-14T13:48:13;67.83;61.25;74.69;;
74214;Laerm;62576;55.694;37.494;2024-02-14T13:50:44;67.33;61.24;76.14;;
74214;Laerm;62576;55.694;37.494;2024-02-14T13:53:14;70.86;63.57;78.43;;